createdAt,value
2022-11-24T00:00:30.801Z,3.80
2022-11-24T00:03:21.024Z,5.20
2022-11-24T00:06:10.806Z,3.40
2022-11-24T00:08:59.230Z,3.65
2022-11-24T00:11:47.066Z,3.30
2022-11-24T00:14:34.873Z,4.07
2022-11-24T00:17:22.715Z,4.70
2022-11-24T00:20:10.779Z,3.75
2022-11-24T00:22:58.484Z,3.50
2022-11-24T00:25:29.380Z,3.53
2022-11-24T00:28:13.862Z,3.60
2022-11-24T00:31:01.687Z,3.75
2022-11-24T00:33:47.338Z,4.05
2022-11-24T00:36:17.355Z,4.30
2022-11-24T00:39:06.620Z,3.35
2022-11-24T00:41:54.292Z,4.00
2022-11-24T00:44:41.861Z,4.57
2022-11-24T00:47:10.818Z,3.15
2022-11-24T00:49:40.134Z,4.25
2022-11-24T00:52:10.845Z,5.03
2022-11-24T00:54:39.588Z,3.47
2022-11-24T00:57:08.617Z,3.67
2022-11-24T01:02:12.475Z,3.53
2022-11-24T01:04:40.936Z,4.32
2022-11-24T01:07:11.734Z,3.47
2022-11-24T01:09:43.175Z,4.00
2022-11-24T01:12:14.450Z,4.22
2022-11-24T01:14:45.304Z,4.47
2022-11-24T01:17:16.078Z,4.05
2022-11-24T01:20:04.737Z,4.35
2022-11-24T01:22:52.444Z,3.25
2022-11-24T01:25:40.846Z,4.63
2022-11-24T01:28:28.384Z,3.13
2022-11-24T01:31:12.691Z,4.07
2022-11-24T01:33:57.580Z,3.80
2022-11-24T01:36:45.168Z,3.35
2022-11-24T01:39:32.777Z,3.65
2022-11-24T01:42:04.397Z,4.25
2022-11-24T01:44:36.919Z,4.47
2022-11-24T01:47:08.067Z,3.15
2022-11-24T01:49:40.290Z,4.38
2022-11-24T01:52:42.230Z,2.65
2022-11-24T01:55:20.523Z,3.20
2022-11-24T01:58:03.148Z,3.40
2022-11-24T02:00:51.263Z,2.92
2022-11-24T02:03:39.806Z,4.68
2022-11-24T02:06:28.674Z,3.75
2022-11-24T02:09:24.352Z,6.25
2022-11-24T02:12:08.047Z,3.95
2022-11-24T02:14:41.342Z,3.92
2022-11-24T02:17:20.012Z,3.72
2022-11-24T02:20:06.725Z,3.25
2022-11-24T02:22:57.815Z,3.28
2022-11-24T02:25:26.782Z,3.00
2022-11-24T02:28:13.748Z,3.20
2022-11-24T02:30:41.822Z,3.60
2022-11-24T02:33:29.999Z,3.75
2022-11-24T02:35:59.550Z,3.90
2022-11-24T02:38:35.914Z,3.58
2022-11-24T02:41:06.730Z,3.13
2022-11-24T02:43:38.039Z,4.68
2022-11-24T02:46:06.848Z,2.63
2022-11-24T02:48:50.706Z,2.70
2022-11-24T02:51:21.712Z,3.15
2022-11-24T02:54:06.465Z,3.65
2022-11-24T02:56:46.282Z,3.20
2022-11-24T02:59:33.863Z,4.05
2022-11-24T03:02:13.225Z,2.78
2022-11-24T03:05:00.773Z,2.58
2022-11-24T03:07:43.550Z,3.95
2022-11-24T03:10:29.831Z,3.38
2022-11-24T03:13:13.003Z,3.17
2022-11-24T03:15:59.707Z,3.85
2022-11-24T03:18:45.131Z,2.97
2022-11-24T03:21:23.276Z,3.03
2022-11-24T03:24:09.017Z,2.90
2022-11-24T03:26:51.101Z,3.20
2022-11-24T03:29:27.919Z,3.38
2022-11-24T03:32:08.526Z,4.32
2022-11-24T03:34:56.123Z,2.58
2022-11-24T03:37:43.759Z,3.47
2022-11-24T03:40:13.100Z,3.33
2022-11-24T03:43:00.632Z,4.28
2022-11-24T03:45:47.693Z,4.45
2022-11-24T03:48:30.025Z,2.97
2022-11-24T03:51:03.096Z,3.15
2022-11-24T03:53:40.193Z,3.40
2022-11-24T03:56:13.811Z,2.15
2022-11-24T03:58:51.750Z,3.38
2022-11-24T04:01:21.263Z,3.33
2022-11-24T04:03:51.640Z,2.38
2022-11-24T04:06:21.024Z,2.92
2022-11-24T04:08:52.118Z,3.20
2022-11-24T04:11:43.090Z,2.97
2022-11-24T04:14:13.815Z,3.00
2022-11-24T04:16:43.525Z,3.35
2022-11-24T04:19:14.818Z,2.38
2022-11-24T04:21:46.376Z,3.42
2022-11-24T04:24:17.601Z,3.22
2022-11-24T04:26:47.206Z,3.58
2022-11-24T04:29:15.867Z,3.38
2022-11-24T04:31:52.140Z,2.95
2022-11-24T04:34:36.892Z,2.63
2022-11-24T04:37:13.348Z,3.33
2022-11-24T04:39:50.458Z,4.22
2022-11-24T04:42:38.483Z,4.10
2022-11-24T04:45:07.292Z,4.15
2022-11-24T04:47:38.703Z,3.30
2022-11-24T04:50:07.708Z,3.25
2022-11-24T04:52:55.382Z,3.42
2022-11-24T04:55:41.780Z,2.85
2022-11-24T04:58:21.696Z,4.32
2022-11-24T05:01:01.439Z,2.92
2022-11-24T05:03:47.922Z,3.00
2022-11-24T05:06:25.979Z,2.45
2022-11-24T05:09:11.071Z,2.63
2022-11-24T05:11:58.856Z,3.33
2022-11-24T05:14:44.460Z,3.97
2022-11-24T05:17:19.621Z,3.90
2022-11-24T05:20:05.108Z,3.38
2022-11-24T05:22:52.597Z,4.25
2022-11-24T05:25:21.408Z,3.53
2022-11-24T05:27:52.193Z,2.97
2022-11-24T05:30:20.728Z,3.42
2022-11-24T05:33:08.762Z,3.28
2022-11-24T05:35:42.495Z,4.57
2022-11-24T05:38:11.369Z,3.00
2022-11-24T05:40:42.224Z,4.00
2022-11-24T05:43:14.927Z,3.22
2022-11-24T05:45:44.325Z,2.80
2022-11-24T05:48:14.364Z,3.10
2022-11-24T05:50:42.792Z,2.92
2022-11-24T05:53:14.483Z,4.53
2022-11-24T05:55:43.240Z,3.03
2022-11-24T05:58:25.604Z,3.63
2022-11-24T06:01:09.826Z,4.70
2022-11-24T06:03:56.827Z,3.25
2022-11-24T06:06:43.245Z,3.95
2022-11-24T06:09:27.098Z,3.42
2022-11-24T06:12:01.182Z,3.75
2022-11-24T06:14:48.593Z,2.75
2022-11-24T06:17:32.358Z,2.65
2022-11-24T06:20:16.859Z,4.75
2022-11-24T06:23:01.034Z,3.03
2022-11-24T06:25:43.612Z,3.53
2022-11-24T06:28:34.022Z,5.53
2022-11-24T06:31:17.036Z,3.28
2022-11-24T06:33:46.940Z,3.33
2022-11-24T06:36:15.464Z,2.92
2022-11-24T06:38:47.492Z,4.03
2022-11-24T06:41:16.940Z,3.13
2022-11-24T06:43:45.898Z,3.00
2022-11-24T06:46:16.752Z,3.30
2022-11-24T06:48:47.712Z,2.20
2022-11-24T06:51:19.872Z,2.75
2022-11-24T06:53:49.656Z,2.40
2022-11-24T06:56:19.893Z,2.75
2022-11-24T06:58:51.453Z,2.88
2022-11-24T07:01:24.675Z,2.53
2022-11-24T07:04:04.474Z,3.03
2022-11-24T07:06:53.580Z,2.85
2022-11-24T07:09:28.526Z,2.72
2022-11-24T07:12:10.814Z,2.25
2022-11-24T07:14:50.254Z,1.33
2022-11-24T07:17:26.926Z,1.60
2022-11-24T07:20:10.791Z,1.05
2022-11-24T07:22:58.227Z,1.00
2022-11-24T07:25:36.924Z,0.98
2022-11-24T07:28:20.976Z,1.73
2022-11-24T07:31:05.956Z,1.50
2022-11-24T07:33:42.452Z,0.98
2022-11-24T07:36:13.418Z,1.08
2022-11-24T07:38:42.388Z,1.08
2022-11-24T07:41:13.781Z,0.93
2022-11-24T07:44:01.352Z,0.80
2022-11-24T07:46:47.723Z,1.38
2022-11-24T07:49:33.057Z,1.10
2022-11-24T07:52:26.507Z,1.13
2022-11-24T07:54:55.567Z,1.27
2022-11-24T07:57:24.492Z,1.30
2022-11-24T07:59:55.248Z,0.90
2022-11-24T08:02:25.043Z,0.90
2022-11-24T08:04:57.799Z,1.10
2022-11-24T08:07:27.454Z,0.90
2022-11-24T08:09:58.598Z,0.40
2022-11-24T08:12:27.557Z,0.90
2022-11-24T08:14:59.732Z,0.80
2022-11-24T08:17:47.622Z,0.93
2022-11-24T08:20:16.534Z,0.77
2022-11-24T08:22:50.657Z,0.70
2022-11-24T08:25:19.501Z,0.70
2022-11-24T08:27:52.933Z,1.15
2022-11-24T08:30:39.588Z,1.17
2022-11-24T08:33:22.315Z,0.80
2022-11-24T08:36:12.453Z,1.20
2022-11-24T08:38:57.368Z,1.27
2022-11-24T08:41:42.597Z,2.72
2022-11-24T08:44:30.282Z,1.23
2022-11-24T08:47:14.721Z,1.05
2022-11-24T08:50:00.522Z,1.25
2022-11-24T08:52:48.284Z,1.27
2022-11-24T08:55:35.960Z,1.40
2022-11-24T08:58:15.499Z,1.00
2022-11-24T09:00:46.774Z,1.17
2022-11-24T09:03:20.216Z,1.58
2022-11-24T09:05:52.785Z,2.45
2022-11-24T09:08:21.800Z,1.23
2022-11-24T09:10:51.512Z,1.95
2022-11-24T09:13:22.923Z,1.95
2022-11-24T09:15:51.763Z,1.35
2022-11-24T09:18:20.540Z,1.58
2022-11-24T09:20:50.195Z,1.88
2022-11-24T09:23:39.773Z,1.20
2022-11-24T09:26:31.078Z,1.50
2022-11-24T09:29:17.279Z,1.80
2022-11-24T09:31:48.417Z,1.63
2022-11-24T09:34:17.383Z,2.67
2022-11-24T09:36:53.189Z,2.65
2022-11-24T09:39:21.610Z,1.23
2022-11-24T09:41:53.191Z,1.65
2022-11-24T09:44:37.055Z,2.28
2022-11-24T09:47:10.789Z,3.38
2022-11-24T09:49:51.604Z,1.77
2022-11-24T09:52:24.020Z,1.90
2022-11-24T09:54:56.458Z,1.67
2022-11-24T09:57:44.525Z,1.23
2022-11-24T10:00:15.559Z,1.88
2022-11-24T10:03:03.826Z,2.80
2022-11-24T10:05:38.843Z,2.03
2022-11-24T10:08:19.647Z,2.20
2022-11-24T10:10:54.132Z,2.13
2022-11-24T10:13:30.504Z,1.17
2022-11-24T10:16:04.582Z,1.25
2022-11-24T10:18:52.165Z,2.17
2022-11-24T10:21:38.342Z,2.17
2022-11-24T10:24:30.134Z,2.10
2022-11-24T10:27:34.339Z,2.22
2022-11-24T10:30:13.062Z,2.55
2022-11-24T10:32:55.512Z,1.73
2022-11-24T10:35:28.772Z,1.48
2022-11-24T10:38:21.822Z,1.85
2022-11-24T10:41:06.908Z,1.95
2022-11-24T10:43:46.255Z,2.15
2022-11-24T10:46:32.546Z,2.47
2022-11-24T10:49:20.104Z,2.25
2022-11-24T10:52:02.232Z,1.92
2022-11-24T10:54:37.041Z,1.50
2022-11-24T10:57:27.470Z,2.40
2022-11-24T10:59:56.407Z,3.08
2022-11-24T11:02:27.845Z,1.88
2022-11-24T11:04:56.042Z,1.80
2022-11-24T11:07:26.008Z,1.70
2022-11-24T11:10:20.168Z,1.70
2022-11-24T11:13:21.561Z,2.00
2022-11-24T11:15:54.464Z,1.70
2022-11-24T11:18:36.996Z,1.73
2022-11-24T11:21:25.140Z,2.35
2022-11-24T11:23:55.971Z,1.33
2022-11-24T11:26:27.930Z,2.28
2022-11-24T11:37:27.650Z,1.85
2022-11-24T11:39:59.431Z,1.40
2022-11-24T11:45:34.870Z,1.92
2022-11-24T11:48:03.364Z,1.80
2022-11-24T11:50:47.383Z,1.67
2022-11-24T11:53:34.425Z,1.65
2022-11-24T11:56:08.750Z,1.85
2022-11-24T11:58:56.077Z,2.60
2022-11-24T12:01:27.228Z,1.45
2022-11-24T12:04:05.647Z,1.63
2022-11-24T12:06:41.613Z,1.90
2022-11-24T12:09:29.184Z,2.40
2022-11-24T12:12:23.647Z,2.22
2022-11-24T12:14:55.009Z,1.65
2022-11-24T12:17:35.518Z,1.80
2022-11-24T12:20:26.805Z,2.45
2022-11-24T12:23:19.849Z,2.03
2022-11-24T12:25:58.171Z,1.70
2022-11-24T12:28:34.043Z,1.25
2022-11-24T12:31:07.279Z,1.67
2022-11-24T12:34:06.782Z,2.17
2022-11-24T12:36:53.694Z,1.70
2022-11-24T12:39:27.396Z,2.13
2022-11-24T12:42:05.014Z,1.92
2022-11-24T12:44:48.541Z,1.80
2022-11-24T12:47:42.805Z,1.50
2022-11-24T12:50:15.820Z,1.90
2022-11-24T12:53:01.478Z,1.95
2022-11-24T12:55:32.210Z,2.08
2022-11-24T12:58:19.134Z,1.73
2022-11-24T13:00:48.080Z,2.20
2022-11-24T13:03:50.031Z,1.98
2022-11-24T13:06:25.683Z,1.95
2022-11-24T13:08:54.323Z,1.70
2022-11-24T13:11:28.147Z,2.22
2022-11-24T13:14:00.485Z,2.15
2022-11-24T13:16:44.028Z,1.63
2022-11-24T13:19:20.727Z,1.80
2022-11-24T13:22:02.248Z,1.98
2022-11-24T13:24:33.955Z,2.58
2022-11-24T13:27:15.075Z,2.60
2022-11-24T13:29:45.590Z,2.05
2022-11-24T13:32:21.046Z,2.15
2022-11-24T13:34:54.702Z,2.10
2022-11-24T13:37:27.296Z,3.25
2022-11-24T13:40:04.372Z,2.88
2022-11-24T13:42:57.747Z,2.10
2022-11-24T13:45:41.780Z,1.98
2022-11-24T13:48:20.825Z,2.05
2022-11-24T13:50:51.547Z,1.77
2022-11-24T13:53:30.300Z,2.58
2022-11-24T13:55:59.605Z,1.40
2022-11-24T13:58:37.355Z,3.05
2022-11-24T14:01:11.750Z,1.85
2022-11-24T14:06:55.054Z,3.58
2022-11-24T14:09:26.575Z,2.78
2022-11-24T14:12:00.678Z,2.30
2022-11-24T14:14:40.636Z,4.35
2022-11-24T14:17:24.117Z,2.88
2022-11-24T14:20:00.605Z,2.17
2022-11-24T14:22:44.500Z,2.05
2022-11-24T14:25:30.957Z,1.50
2022-11-24T14:28:01.068Z,1.70
2022-11-24T14:30:33.448Z,1.60
2022-11-24T14:33:21.265Z,1.70
2022-11-24T14:36:14.685Z,2.03
2022-11-24T14:38:56.185Z,2.08
2022-11-24T14:41:44.640Z,2.58
2022-11-24T14:44:41.548Z,1.95
2022-11-24T14:47:32.916Z,2.35
2022-11-24T14:50:16.280Z,1.75
2022-11-24T14:52:57.766Z,2.33
2022-11-24T14:55:39.121Z,1.70
2022-11-24T14:58:32.263Z,2.45
2022-11-24T15:01:22.479Z,2.85
2022-11-24T15:04:11.663Z,2.20
2022-11-24T15:06:42.392Z,3.10
2022-11-24T15:09:41.116Z,2.30
2022-11-24T15:12:19.502Z,1.83
2022-11-24T15:14:52.294Z,3.20
2022-11-24T15:17:22.764Z,3.22
2022-11-24T15:19:53.649Z,1.73
2022-11-24T15:22:35.047Z,2.13
2022-11-24T15:25:04.667Z,2.28
2022-11-24T15:27:51.388Z,2.45
2022-11-24T15:30:29.347Z,2.22
2022-11-24T15:33:22.028Z,2.15
2022-11-24T15:36:02.646Z,2.13
2022-11-24T15:38:33.007Z,3.95
2022-11-24T15:41:02.276Z,5.45
2022-11-24T15:43:36.021Z,3.50
2022-11-24T15:46:05.804Z,2.80
2022-11-24T15:48:35.906Z,2.30
2022-11-24T15:51:25.747Z,3.20
2022-11-24T15:54:14.952Z,2.05
2022-11-24T15:57:02.628Z,2.45
2022-11-24T15:59:33.964Z,4.13
2022-11-24T16:02:02.905Z,3.22
2022-11-24T16:04:34.135Z,3.20
2022-11-24T16:07:06.307Z,2.63
2022-11-24T16:09:53.436Z,5.88
2022-11-24T16:12:24.926Z,2.20
2022-11-24T16:14:53.601Z,2.75
2022-11-24T16:17:23.524Z,2.05
2022-11-24T16:20:11.814Z,2.33
2022-11-24T16:23:01.730Z,2.10
2022-11-24T16:25:47.227Z,2.25
2022-11-24T16:28:33.803Z,3.38
2022-11-24T16:31:05.548Z,2.28
2022-11-24T16:33:40.684Z,2.97
2022-11-24T16:36:13.354Z,3.78
2022-11-24T16:38:43.787Z,3.13
2022-11-24T16:41:15.921Z,3.63
2022-11-24T16:43:46.272Z,6.13
2022-11-24T16:46:15.869Z,3.53
2022-11-24T16:48:46.242Z,2.20
2022-11-24T16:51:15.182Z,2.72
2022-11-24T16:54:00.794Z,2.65
2022-11-24T16:56:30.799Z,4.63
2022-11-24T16:58:59.289Z,2.88
2022-11-24T17:01:27.857Z,2.97
2022-11-24T17:03:57.371Z,4.07
2022-11-24T17:06:27.875Z,2.95
2022-11-24T17:08:57.189Z,3.15
2022-11-24T17:11:27.309Z,4.25
2022-11-24T17:13:59.618Z,2.80
2022-11-24T17:16:47.438Z,2.80
2022-11-24T17:19:35.297Z,3.08
2022-11-24T17:22:23.160Z,3.03
2022-11-24T17:25:11.213Z,2.67
2022-11-24T17:27:58.799Z,3.40
2022-11-24T17:30:48.916Z,3.15
2022-11-24T17:33:29.682Z,2.60
2022-11-24T17:36:17.528Z,2.83
2022-11-24T17:38:49.389Z,1.90
2022-11-24T17:41:33.596Z,2.55
2022-11-24T17:44:10.616Z,2.25
2022-11-24T17:47:00.827Z,2.88
2022-11-24T17:49:37.751Z,1.67
2022-11-24T17:52:09.583Z,2.78
2022-11-24T17:54:46.413Z,3.08
2022-11-24T17:57:15.548Z,2.75
2022-11-24T18:00:02.506Z,2.78
2022-11-24T18:03:01.058Z,2.70
2022-11-24T18:05:45.543Z,2.13
2022-11-24T18:08:24.071Z,2.30
2022-11-24T18:10:52.795Z,2.22
2022-11-24T18:13:40.974Z,2.38
2022-11-24T18:16:12.673Z,2.25
2022-11-24T18:18:48.837Z,2.95
2022-11-24T18:21:20.621Z,2.05
2022-11-24T18:24:07.449Z,2.00
2022-11-24T18:26:50.964Z,2.03
2022-11-24T18:29:31.720Z,3.45
2022-11-24T18:32:01.651Z,1.90
2022-11-24T18:34:46.781Z,1.60
2022-11-24T18:37:36.734Z,1.75
2022-11-24T18:40:18.137Z,2.00
2022-11-24T18:42:48.358Z,2.25
2022-11-24T18:45:39.237Z,1.38
2022-11-24T18:48:27.505Z,1.80
2022-11-24T18:51:08.443Z,5.85
2022-11-24T18:53:37.508Z,2.00
2022-11-24T18:56:07.977Z,2.35
2022-11-24T18:58:39.006Z,2.72
2022-11-24T19:01:19.569Z,2.50
2022-11-24T19:04:02.922Z,2.72
2022-11-24T19:06:50.600Z,2.15
2022-11-24T19:09:38.048Z,2.63
2022-11-24T19:12:20.630Z,2.50
2022-11-24T19:15:05.097Z,3.67
2022-11-24T19:17:52.809Z,2.55
2022-11-24T19:20:42.889Z,2.05
2022-11-24T19:23:28.411Z,3.33
2022-11-24T19:26:19.026Z,2.97
2022-11-24T19:29:06.222Z,3.45
2022-11-24T19:31:54.995Z,2.80
2022-11-24T19:34:33.466Z,2.83
2022-11-24T19:37:02.304Z,2.45
2022-11-24T19:39:34.231Z,3.75
2022-11-24T19:42:05.401Z,1.90
2022-11-24T19:44:36.392Z,2.47
2022-11-24T19:47:05.247Z,2.15
2022-11-24T19:49:36.265Z,3.03
2022-11-24T19:52:05.534Z,2.55
2022-11-24T19:54:36.215Z,3.38
2022-11-24T19:59:38.652Z,2.45
2022-11-24T20:02:08.663Z,2.65
2022-11-24T20:04:39.706Z,1.98
2022-11-24T20:07:24.353Z,2.25
2022-11-24T20:10:06.208Z,2.10
2022-11-24T20:12:55.571Z,2.25
2022-11-24T20:15:43.113Z,1.85
2022-11-24T20:18:31.127Z,2.05
2022-11-24T20:21:03.984Z,2.58
2022-11-24T20:23:36.473Z,2.33
2022-11-24T20:26:10.002Z,2.22
2022-11-24T20:28:41.197Z,2.08
2022-11-24T20:31:14.254Z,3.30
2022-11-24T20:36:17.627Z,1.77
2022-11-24T20:39:05.555Z,1.83
2022-11-24T20:41:53.853Z,2.45
2022-11-24T20:44:39.832Z,2.15
2022-11-24T20:47:27.777Z,2.65
2022-11-24T20:49:59.501Z,2.85
2022-11-24T20:52:29.155Z,2.78
2022-11-24T20:54:58.294Z,2.58
2022-11-24T20:57:27.338Z,2.42
2022-11-24T20:59:56.418Z,2.15
2022-11-24T21:02:27.705Z,2.25
2022-11-24T21:05:06.595Z,3.00
2022-11-24T21:07:54.219Z,2.05
2022-11-24T21:10:35.739Z,4.82
2022-11-24T21:13:20.004Z,2.25
2022-11-24T21:15:55.487Z,1.85
2022-11-24T21:18:37.726Z,2.35
2022-11-24T21:21:13.165Z,2.05
2022-11-24T21:23:59.300Z,2.53
2022-11-24T21:26:31.254Z,2.60
2022-11-24T21:28:59.699Z,2.67
2022-11-24T21:31:30.387Z,2.53
2022-11-24T21:34:09.762Z,2.30
2022-11-24T21:36:57.244Z,1.60
2022-11-24T21:39:44.482Z,2.05
2022-11-24T21:42:30.547Z,1.92
2022-11-24T21:45:02.115Z,1.77
2022-11-24T21:47:42.676Z,2.00
2022-11-24T21:50:11.764Z,2.60
2022-11-24T21:52:56.254Z,3.30
2022-11-24T21:55:39.443Z,2.33
2022-11-24T21:58:14.716Z,3.15
2022-11-24T22:01:06.738Z,2.08
2022-11-24T22:03:57.154Z,2.42
2022-11-24T22:06:28.290Z,2.95
2022-11-24T22:09:18.235Z,3.15
2022-11-24T22:12:08.827Z,2.60
2022-11-24T22:14:51.224Z,2.70
2022-11-24T22:17:20.256Z,2.72
2022-11-24T22:19:49.633Z,2.70
2022-11-24T22:22:18.400Z,2.42
2022-11-24T22:24:46.842Z,3.15
2022-11-24T22:27:15.436Z,1.52
2022-11-24T22:29:53.995Z,2.60
2022-11-24T22:32:23.317Z,2.28
2022-11-24T22:34:51.952Z,1.80
2022-11-24T22:37:24.725Z,2.63
2022-11-24T22:40:08.918Z,1.73
2022-11-24T22:42:59.274Z,2.13
2022-11-24T22:45:47.058Z,2.55
2022-11-24T22:48:35.189Z,2.40
2022-11-24T22:51:08.351Z,1.40
2022-11-24T22:53:40.389Z,2.22
2022-11-24T22:56:10.448Z,1.92
2022-11-24T22:58:41.851Z,1.70
2022-11-24T23:01:20.566Z,2.28
2022-11-24T23:03:53.587Z,3.22
2022-11-24T23:06:23.956Z,2.22
2022-11-24T23:08:52.926Z,2.13
2022-11-24T23:11:31.617Z,2.33
2022-11-24T23:14:03.478Z,2.00
2022-11-24T23:16:33.470Z,1.95
2022-11-24T23:19:05.092Z,3.25
2022-11-24T23:21:35.818Z,2.00
2022-11-24T23:24:05.631Z,2.35
2022-11-24T23:26:37.165Z,3.13
2022-11-24T23:29:07.763Z,2.70
2022-11-24T23:31:48.678Z,2.28
2022-11-24T23:34:33.143Z,2.80
2022-11-24T23:37:08.775Z,1.58
2022-11-24T23:39:53.690Z,2.38
2022-11-24T23:42:43.721Z,2.35
2022-11-24T23:45:29.756Z,1.55
2022-11-24T23:48:12.351Z,1.60
2022-11-24T23:50:56.761Z,2.33
2022-11-24T23:53:36.970Z,2.22
2022-11-24T23:56:13.751Z,1.77
2022-11-24T23:59:01.175Z,1.92
